Big Pine Key, FL (33043)

8:06 AM EST on January 30, 2015 (GMT -0500)
RAWS NATIONAL KEY DEER NWR FL US | Change Station
CLOSE
Current Station
Personal Weather Station
Location: Summerland Key, FL
Elevation: 9 ft
Nearby Weather Stations

Elev 9 ft 24.72 °N, 81.39 °W | Updated 1 hour ago

Partly Cloudy
Partly Cloudy
64 °F
Feels Like 64 °F
N
7
Wind Variable Wind from North
Gusts 12.0 mph

Today
High -- | Low -- °F
--% Chance of Precip.
Yesterday
High -- | Low -- °F
Precip. -- in
7:08 AM 6:09 PM
Waxing Gibbous, 82% visible
Pressure 30.20 in
Visibility 10.0 miles
Clouds Scattered Clouds 6000 ft
Mostly Cloudy 18000 ft
Dew Point 56 °F
Humidity 76%
Rainfall 0.00 in
Snow Depth Not available.
UV 0 out of 12
Pollen 7.60 out of 12
Air Quality Not available.
Flu Activity Not available.
METAR KNQX 301253Z 02007KT 10SM SCT060 BKN180 19/13 A3020 RMK AO2 SLP225 T01890133 $

More Conditions Fewer Conditions

Pressure 30.20 in
Visibility 10.0 miles
Clouds Scattered Clouds 6000 ft
Mostly Cloudy 18000 ft
Dew Point 56 °F
Humidity 76%
Rainfall 0.00 in
Snow Depth Not available.
UV 0 out of 12
Pollen 7.60 out of 12
Air Quality Not available.
Flu Activity Not available.
METAR KNQX 301253Z 02007KT 10SM SCT060 BKN180 19/13 A3020 RMK AO2 SLP225 T01890133 $

More Conditions Fewer Conditions

10-Day Weather Forecast

Almanac

Astronomy

Jan. 30, 2015 Rise Set
Actual Time
Civil Twilight
Nautical Twilight
Astronomical Twilight
Moon
Length of Visible Light
Length of Day
Tomorrow will be .
, % of the Moon is Illuminated

Today's Extremes

State Highs State Lows

Community

WunderPhotos

Upload Photos

1,791,747 photos uploaded!

WunderBlogs® & News

Nearby

Air Quality

  Air Quality AQ Index Pollutant
Not available.

Snow Depth

Station Depth Elevation

Earthquake Activity

City Distance Mag. Time & Date
Minimum magnitude displayed is 2.5.

Coastal Water Temperatures

Place Temperature

Nearby Weather Stations